sensor_id;sensor_type;location;lat;lon;timestamp;P1;durP1;ratioP1;P2;durP2;ratioP2
53971;SDS011;40530;53.062;6.078;2023-01-29T00:01:03;12.77;;;9.65;;
53971;SDS011;40530;53.062;6.078;2023-01-29T00:03:29;14.18;;;10.82;;
53971;SDS011;40530;53.062;6.078;2023-01-29T00:05:55;16.05;;;11.10;;
53971;SDS011;40530;53.062;6.078;2023-01-29T00:08:21;11.82;;;9.82;;
53971;SDS011;40530;53.062;6.078;2023-01-29T00:10:47;16.13;;;11.70;;
53971;SDS011;40530;53.062;6.078;2023-01-29T00:13:13;16.50;;;10.85;;
53971;SDS011;40530;53.062;6.078;2023-01-29T00:15:39;15.45;;;11.13;;
53971;SDS011;40530;53.062;6.078;2023-01-29T00:18:05;14.30;;;9.40;;
53971;SDS011;40530;53.062;6.078;2023-01-29T00:20:31;15.20;;;9.38;;
53971;SDS011;40530;53.062;6.078;2023-01-29T00:22:58;16.27;;;9.70;;
53971;SDS011;40530;53.062;6.078;2023-01-29T00:25:24;15.15;;;8.10;;
53971;SDS011;40530;53.062;6.078;2023-01-29T00:27:50;13.23;;;8.27;;
53971;SDS011;40530;53.062;6.078;2023-01-29T00:30:16;13.15;;;7.60;;
53971;SDS011;40530;53.062;6.078;2023-01-29T00:32:43;11.93;;;6.97;;
53971;SDS011;40530;53.062;6.078;2023-01-29T00:35:10;14.15;;;8.27;;
53971;SDS011;40530;53.062;6.078;2023-01-29T00:37:36;16.95;;;10.15;;
53971;SDS011;40530;53.062;6.078;2023-01-29T00:40:03;11.95;;;8.20;;
53971;SDS011;40530;53.062;6.078;2023-01-29T00:42:29;11.00;;;7.65;;
53971;SDS011;40530;53.062;6.078;2023-01-29T00:45:14;13.73;;;8.25;;
53971;SDS011;40530;53.062;6.078;2023-01-29T00:47:40;15.63;;;7.70;;
53971;SDS011;40530;53.062;6.078;2023-01-29T00:50:10;13.18;;;7.68;;
53971;SDS011;40530;53.062;6.078;2023-01-29T00:52:36;10.75;;;7.97;;
53971;SDS011;40530;53.062;6.078;2023-01-29T00:55:05;11.43;;;7.93;;
53971;SDS011;40530;53.062;6.078;2023-01-29T00:57:31;17.60;;;8.45;;
53971;SDS011;40530;53.062;6.078;2023-01-29T00:59:58;16.65;;;10.25;;
53971;SDS011;40530;53.062;6.078;2023-01-29T01:02:24;15.73;;;9.30;;
53971;SDS011;40530;53.062;6.078;2023-01-29T01:05:10;9.80;;;7.38;;
53971;SDS011;40530;53.062;6.078;2023-01-29T01:07:41;10.05;;;7.82;;
53971;SDS011;40530;53.062;6.078;2023-01-29T01:10:11;11.32;;;8.68;;
53971;SDS011;40530;53.062;6.078;2023-01-29T01:12:48;12.57;;;8.05;;
53971;SDS011;40530;53.062;6.078;2023-01-29T01:15:15;12.45;;;7.60;;
53971;SDS011;40530;53.062;6.078;2023-01-29T01:17:41;11.73;;;8.57;;
53971;SDS011;40530;53.062;6.078;2023-01-29T01:20:07;14.82;;;8.65;;
53971;SDS011;40530;53.062;6.078;2023-01-29T01:22:34;10.68;;;8.02;;
53971;SDS011;40530;53.062;6.078;2023-01-29T01:25:00;16.75;;;9.40;;
53971;SDS011;40530;53.062;6.078;2023-01-29T01:27:26;10.00;;;7.50;;
53971;SDS011;40530;53.062;6.078;2023-01-29T01:29:52;12.52;;;7.88;;
53971;SDS011;40530;53.062;6.078;2023-01-29T01:32:18;10.77;;;6.93;;
53971;SDS011;40530;53.062;6.078;2023-01-29T01:34:44;8.73;;;7.13;;
53971;SDS011;40530;53.062;6.078;2023-01-29T01:37:10;9.70;;;6.82;;
53971;SDS011;40530;53.062;6.078;2023-01-29T01:39:36;9.27;;;6.57;;
53971;SDS011;40530;53.062;6.078;2023-01-29T01:42:02;7.47;;;5.97;;
53971;SDS011;40530;53.062;6.078;2023-01-29T01:44:48;11.43;;;6.50;;
53971;SDS011;40530;53.062;6.078;2023-01-29T01:47:15;7.68;;;6.43;;
53971;SDS011;40530;53.062;6.078;2023-01-29T01:49:42;12.32;;;6.15;;
53971;SDS011;40530;53.062;6.078;2023-01-29T01:52:09;10.15;;;6.78;;
53971;SDS011;40530;53.062;6.078;2023-01-29T01:54:36;14.68;;;7.10;;
53971;SDS011;40530;53.062;6.078;2023-01-29T01:57:04;10.65;;;6.82;;
53971;SDS011;40530;53.062;6.078;2023-01-29T01:59:40;9.05;;;6.82;;
53971;SDS011;40530;53.062;6.078;2023-01-29T02:02:08;8.57;;;7.03;;
53971;SDS011;40530;53.062;6.078;2023-01-29T02:04:53;8.65;;;7.22;;
53971;SDS011;40530;53.062;6.078;2023-01-29T02:07:41;10.93;;;7.63;;
53971;SDS011;40530;53.062;6.078;2023-01-29T02:10:26;16.08;;;8.05;;
53971;SDS011;40530;53.062;6.078;2023-01-29T02:12:54;12.63;;;8.32;;
53971;SDS011;40530;53.062;6.078;2023-01-29T02:15:21;15.27;;;8.88;;
53971;SDS011;40530;53.062;6.078;2023-01-29T02:17:47;13.07;;;8.98;;
53971;SDS011;40530;53.062;6.078;2023-01-29T02:20:23;14.13;;;8.70;;
53971;SDS011;40530;53.062;6.078;2023-01-29T02:22:56;14.15;;;8.70;;
53971;SDS011;40530;53.062;6.078;2023-01-29T02:30:39;10.88;;;9.00;;
53971;SDS011;40530;53.062;6.078;2023-01-29T02:38:30;12.05;;;8.82;;
53971;SDS011;40530;53.062;6.078;2023-01-29T02:41:01;17.17;;;9.77;;
53971;SDS011;40530;53.062;6.078;2023-01-29T02:48:23;15.88;;;10.88;;
53971;SDS011;40530;53.062;6.078;2023-01-29T02:51:01;13.68;;;10.93;;
53971;SDS011;40530;53.062;6.078;2023-01-29T02:53:35;13.80;;;9.98;;
53971;SDS011;40530;53.062;6.078;2023-01-29T02:56:10;14.13;;;10.45;;
53971;SDS011;40530;53.062;6.078;2023-01-29T02:58:49;15.10;;;10.98;;
53971;SDS011;40530;53.062;6.078;2023-01-29T03:01:18;17.02;;;10.85;;
53971;SDS011;40530;53.062;6.078;2023-01-29T03:03:50;16.40;;;11.13;;
53971;SDS011;40530;53.062;6.078;2023-01-29T03:06:25;15.07;;;10.75;;
53971;SDS011;40530;53.062;6.078;2023-01-29T03:09:33;19.48;;;12.20;;
53971;SDS011;40530;53.062;6.078;2023-01-29T03:12:26;15.43;;;11.25;;
53971;SDS011;40530;53.062;6.078;2023-01-29T03:15:19;17.48;;;12.35;;
53971;SDS011;40530;53.062;6.078;2023-01-29T03:18:14;16.63;;;12.32;;
53971;SDS011;40530;53.062;6.078;2023-01-29T03:20:44;16.25;;;11.90;;
53971;SDS011;40530;53.062;6.078;2023-01-29T03:23:19;17.17;;;12.95;;
53971;SDS011;40530;53.062;6.078;2023-01-29T03:25:49;15.23;;;11.68;;
53971;SDS011;40530;53.062;6.078;2023-01-29T03:28:35;15.60;;;11.98;;
53971;SDS011;40530;53.062;6.078;2023-01-29T03:31:20;15.52;;;11.13;;
53971;SDS011;40530;53.062;6.078;2023-01-29T03:34:11;17.42;;;11.90;;
53971;SDS011;40530;53.062;6.078;2023-01-29T03:36:49;16.52;;;11.45;;
53971;SDS011;40530;53.062;6.078;2023-01-29T03:39:20;19.83;;;11.88;;
53971;SDS011;40530;53.062;6.078;2023-01-29T03:44:20;14.88;;;11.38;;
53971;SDS011;40530;53.062;6.078;2023-01-29T03:49:52;15.93;;;12.02;;
53971;SDS011;40530;53.062;6.078;2023-01-29T03:52:23;16.95;;;12.52;;
53971;SDS011;40530;53.062;6.078;2023-01-29T03:59:55;15.77;;;12.82;;
53971;SDS011;40530;53.062;6.078;2023-01-29T04:02:29;16.52;;;13.00;;
53971;SDS011;40530;53.062;6.078;2023-01-29T04:04:57;16.08;;;12.30;;
53971;SDS011;40530;53.062;6.078;2023-01-29T04:07:24;15.60;;;12.68;;
53971;SDS011;40530;53.062;6.078;2023-01-29T04:09:55;18.40;;;12.65;;
53971;SDS011;40530;53.062;6.078;2023-01-29T04:12:24;17.77;;;12.48;;
53971;SDS011;40530;53.062;6.078;2023-01-29T04:14:51;17.48;;;12.57;;
53971;SDS011;40530;53.062;6.078;2023-01-29T04:17:27;15.73;;;12.48;;
53971;SDS011;40530;53.062;6.078;2023-01-29T04:19:56;18.75;;;11.70;;
53971;SDS011;40530;53.062;6.078;2023-01-29T04:22:25;17.48;;;12.30;;
53971;SDS011;40530;53.062;6.078;2023-01-29T04:24:53;16.38;;;12.20;;
53971;SDS011;40530;53.062;6.078;2023-01-29T04:32:16;19.02;;;12.13;;
53971;SDS011;40530;53.062;6.078;2023-01-29T04:37:22;15.70;;;11.63;;
53971;SDS011;40530;53.062;6.078;2023-01-29T04:39:53;14.63;;;11.82;;
53971;SDS011;40530;53.062;6.078;2023-01-29T04:44:55;13.50;;;11.43;;
53971;SDS011;40530;53.062;6.078;2023-01-29T04:50:13;14.27;;;11.43;;
53971;SDS011;40530;53.062;6.078;2023-01-29T04:55:16;15.07;;;11.75;;
53971;SDS011;40530;53.062;6.078;2023-01-29T04:57:54;17.75;;;12.80;;
53971;SDS011;40530;53.062;6.078;2023-01-29T05:00:25;15.95;;;12.30;;
53971;SDS011;40530;53.062;6.078;2023-01-29T05:02:53;29.52;;;14.52;;
53971;SDS011;40530;53.062;6.078;2023-01-29T05:05:19;16.60;;;11.40;;
53971;SDS011;40530;53.062;6.078;2023-01-29T05:07:46;14.80;;;11.63;;
53971;SDS011;40530;53.062;6.078;2023-01-29T05:10:13;17.42;;;12.75;;
53971;SDS011;40530;53.062;6.078;2023-01-29T05:12:39;21.27;;;13.30;;
53971;SDS011;40530;53.062;6.078;2023-01-29T05:15:10;20.10;;;13.63;;
53971;SDS011;40530;53.062;6.078;2023-01-29T05:17:36;20.00;;;13.60;;
53971;SDS011;40530;53.062;6.078;2023-01-29T05:20:03;17.95;;;13.55;;
53971;SDS011;40530;53.062;6.078;2023-01-29T05:22:30;16.50;;;12.88;;
53971;SDS011;40530;53.062;6.078;2023-01-29T05:24:56;17.23;;;12.77;;
53971;SDS011;40530;53.062;6.078;2023-01-29T05:27:32;16.80;;;12.45;;
53971;SDS011;40530;53.062;6.078;2023-01-29T05:30:18;17.63;;;12.32;;
53971;SDS011;40530;53.062;6.078;2023-01-29T05:32:45;21.35;;;13.13;;
53971;SDS011;40530;53.062;6.078;2023-01-29T05:35:11;14.93;;;11.95;;
53971;SDS011;40530;53.062;6.078;2023-01-29T05:37:37;20.75;;;14.07;;
53971;SDS011;40530;53.062;6.078;2023-01-29T05:40:03;22.60;;;14.88;;
53971;SDS011;40530;53.062;6.078;2023-01-29T05:42:32;23.05;;;14.77;;
53971;SDS011;40530;53.062;6.078;2023-01-29T05:44:58;21.88;;;14.93;;
53971;SDS011;40530;53.062;6.078;2023-01-29T05:47:24;26.65;;;16.50;;
53971;SDS011;40530;53.062;6.078;2023-01-29T05:49:50;23.85;;;16.48;;
53971;SDS011;40530;53.062;6.078;2023-01-29T05:52:16;23.27;;;15.55;;
53971;SDS011;40530;53.062;6.078;2023-01-29T05:54:42;25.85;;;15.55;;
53971;SDS011;40530;53.062;6.078;2023-01-29T05:57:08;29.23;;;17.40;;
53971;SDS011;40530;53.062;6.078;2023-01-29T05:59:34;28.73;;;16.95;;
53971;SDS011;40530;53.062;6.078;2023-01-29T06:02:01;26.05;;;16.27;;
53971;SDS011;40530;53.062;6.078;2023-01-29T06:04:27;23.90;;;16.77;;
53971;SDS011;40530;53.062;6.078;2023-01-29T06:06:53;28.52;;;17.35;;
53971;SDS011;40530;53.062;6.078;2023-01-29T06:09:19;26.02;;;18.27;;
53971;SDS011;40530;53.062;6.078;2023-01-29T06:11:45;32.00;;;19.15;;
53971;SDS011;40530;53.062;6.078;2023-01-29T06:14:11;30.45;;;19.20;;
53971;SDS011;40530;53.062;6.078;2023-01-29T06:16:37;32.08;;;19.50;;
53971;SDS011;40530;53.062;6.078;2023-01-29T06:19:03;32.83;;;20.17;;
53971;SDS011;40530;53.062;6.078;2023-01-29T06:21:29;27.15;;;20.05;;
53971;SDS011;40530;53.062;6.078;2023-01-29T06:23:55;31.10;;;21.52;;
53971;SDS011;40530;53.062;6.078;2023-01-29T06:26:21;30.05;;;21.75;;
53971;SDS011;40530;53.062;6.078;2023-01-29T06:28:48;32.78;;;21.95;;
53971;SDS011;40530;53.062;6.078;2023-01-29T06:31:14;38.63;;;24.00;;
53971;SDS011;40530;53.062;6.078;2023-01-29T06:33:40;32.83;;;21.83;;
53971;SDS011;40530;53.062;6.078;2023-01-29T06:36:06;32.67;;;21.55;;
53971;SDS011;40530;53.062;6.078;2023-01-29T06:38:32;30.73;;;22.10;;
53971;SDS011;40530;53.062;6.078;2023-01-29T06:40:58;32.85;;;23.52;;
53971;SDS011;40530;53.062;6.078;2023-01-29T06:43:24;40.53;;;24.25;;
53971;SDS011;40530;53.062;6.078;2023-01-29T06:45:51;31.45;;;23.67;;
53971;SDS011;40530;53.062;6.078;2023-01-29T06:48:18;35.97;;;24.67;;
53971;SDS011;40530;53.062;6.078;2023-01-29T06:50:44;36.15;;;24.67;;
53971;SDS011;40530;53.062;6.078;2023-01-29T06:53:10;38.78;;;24.42;;
53971;SDS011;40530;53.062;6.078;2023-01-29T06:55:36;38.20;;;25.45;;
53971;SDS011;40530;53.062;6.078;2023-01-29T06:58:06;34.38;;;24.63;;
53971;SDS011;40530;53.062;6.078;2023-01-29T07:00:32;33.70;;;24.25;;
53971;SDS011;40530;53.062;6.078;2023-01-29T07:02:58;34.38;;;24.00;;
53971;SDS011;40530;53.062;6.078;2023-01-29T07:05:24;32.08;;;23.88;;
53971;SDS011;40530;53.062;6.078;2023-01-29T07:07:50;31.65;;;23.98;;
53971;SDS011;40530;53.062;6.078;2023-01-29T07:10:17;31.98;;;23.38;;
53971;SDS011;40530;53.062;6.078;2023-01-29T07:12:43;30.13;;;23.42;;
53971;SDS011;40530;53.062;6.078;2023-01-29T07:15:09;35.17;;;21.77;;
53971;SDS011;40530;53.062;6.078;2023-01-29T07:17:39;33.95;;;22.60;;
53971;SDS011;40530;53.062;6.078;2023-01-29T07:20:05;33.10;;;22.40;;
53971;SDS011;40530;53.062;6.078;2023-01-29T07:22:32;29.23;;;21.48;;
53971;SDS011;40530;53.062;6.078;2023-01-29T07:24:58;30.60;;;22.63;;
53971;SDS011;40530;53.062;6.078;2023-01-29T07:27:24;30.60;;;22.60;;
53971;SDS011;40530;53.062;6.078;2023-01-29T07:29:50;36.92;;;23.52;;
53971;SDS011;40530;53.062;6.078;2023-01-29T07:32:16;33.40;;;22.05;;
53971;SDS011;40530;53.062;6.078;2023-01-29T07:34:42;29.60;;;22.35;;
53971;SDS011;40530;53.062;6.078;2023-01-29T07:37:08;31.05;;;22.55;;
53971;SDS011;40530;53.062;6.078;2023-01-29T07:39:34;36.05;;;22.50;;
53971;SDS011;40530;53.062;6.078;2023-01-29T07:42:00;84.78;;;45.00;;
53971;SDS011;40530;53.062;6.078;2023-01-29T07:44:26;34.53;;;22.30;;
53971;SDS011;40530;53.062;6.078;2023-01-29T07:46:52;34.05;;;23.50;;
53971;SDS011;40530;53.062;6.078;2023-01-29T07:49:18;35.28;;;23.35;;
53971;SDS011;40530;53.062;6.078;2023-01-29T07:51:44;32.53;;;22.65;;
53971;SDS011;40530;53.062;6.078;2023-01-29T07:54:10;35.10;;;23.60;;
53971;SDS011;40530;53.062;6.078;2023-01-29T07:56:36;39.97;;;25.00;;
53971;SDS011;40530;53.062;6.078;2023-01-29T07:59:02;32.75;;;25.30;;
53971;SDS011;40530;53.062;6.078;2023-01-29T08:01:28;39.35;;;25.77;;
53971;SDS011;40530;53.062;6.078;2023-01-29T08:03:54;39.97;;;26.77;;
53971;SDS011;40530;53.062;6.078;2023-01-29T08:06:21;38.42;;;24.15;;
53971;SDS011;40530;53.062;6.078;2023-01-29T08:08:47;44.38;;;26.48;;
53971;SDS011;40530;53.062;6.078;2023-01-29T08:11:13;42.72;;;27.30;;
53971;SDS011;40530;53.062;6.078;2023-01-29T08:13:39;41.10;;;26.83;;
53971;SDS011;40530;53.062;6.078;2023-01-29T08:16:05;37.55;;;27.13;;
53971;SDS011;40530;53.062;6.078;2023-01-29T08:18:31;40.90;;;27.00;;
53971;SDS011;40530;53.062;6.078;2023-01-29T08:20:58;40.92;;;25.88;;
53971;SDS011;40530;53.062;6.078;2023-01-29T08:23:25;43.95;;;27.80;;
53971;SDS011;40530;53.062;6.078;2023-01-29T08:25:54;53.63;;;29.80;;
53971;SDS011;40530;53.062;6.078;2023-01-29T08:28:20;40.85;;;27.42;;
53971;SDS011;40530;53.062;6.078;2023-01-29T08:30:46;40.60;;;27.00;;
53971;SDS011;40530;53.062;6.078;2023-01-29T08:33:12;39.45;;;25.77;;
53971;SDS011;40530;53.062;6.078;2023-01-29T08:35:38;45.28;;;26.35;;
53971;SDS011;40530;53.062;6.078;2023-01-29T08:38:05;42.10;;;28.83;;
53971;SDS011;40530;53.062;6.078;2023-01-29T08:40:32;39.20;;;26.65;;
53971;SDS011;40530;53.062;6.078;2023-01-29T08:43:02;43.55;;;26.30;;
53971;SDS011;40530;53.062;6.078;2023-01-29T08:45:28;41.83;;;24.95;;
53971;SDS011;40530;53.062;6.078;2023-01-29T08:47:54;42.78;;;27.38;;
53971;SDS011;40530;53.062;6.078;2023-01-29T08:50:20;45.50;;;27.92;;
53971;SDS011;40530;53.062;6.078;2023-01-29T08:52:46;38.20;;;25.67;;
53971;SDS011;40530;53.062;6.078;2023-01-29T08:55:13;38.03;;;27.25;;
53971;SDS011;40530;53.062;6.078;2023-01-29T08:57:39;41.42;;;26.80;;
53971;SDS011;40530;53.062;6.078;2023-01-29T09:00:05;42.38;;;27.52;;
53971;SDS011;40530;53.062;6.078;2023-01-29T09:02:31;39.38;;;27.23;;
53971;SDS011;40530;53.062;6.078;2023-01-29T09:04:57;41.40;;;27.85;;
53971;SDS011;40530;53.062;6.078;2023-01-29T09:07:23;41.65;;;27.77;;
53971;SDS011;40530;53.062;6.078;2023-01-29T09:09:49;38.67;;;28.05;;
53971;SDS011;40530;53.062;6.078;2023-01-29T09:12:15;41.50;;;27.70;;
53971;SDS011;40530;53.062;6.078;2023-01-29T09:14:41;40.75;;;26.08;;
53971;SDS011;40530;53.062;6.078;2023-01-29T09:17:07;47.72;;;29.50;;
53971;SDS011;40530;53.062;6.078;2023-01-29T09:19:34;45.60;;;28.23;;
53971;SDS011;40530;53.062;6.078;2023-01-29T09:22:00;42.80;;;28.77;;
53971;SDS011;40530;53.062;6.078;2023-01-29T09:24:26;40.08;;;27.58;;
53971;SDS011;40530;53.062;6.078;2023-01-29T09:26:52;41.47;;;26.58;;
53971;SDS011;40530;53.062;6.078;2023-01-29T09:29:18;44.17;;;27.85;;
53971;SDS011;40530;53.062;6.078;2023-01-29T09:31:44;42.63;;;28.23;;
53971;SDS011;40530;53.062;6.078;2023-01-29T09:34:10;37.45;;;26.60;;
53971;SDS011;40530;53.062;6.078;2023-01-29T09:36:36;41.42;;;27.38;;
53971;SDS011;40530;53.062;6.078;2023-01-29T09:39:02;45.85;;;27.60;;
53971;SDS011;40530;53.062;6.078;2023-01-29T09:42:02;41.55;;;28.65;;
53971;SDS011;40530;53.062;6.078;2023-01-29T09:44:23;43.78;;;26.17;;
53971;SDS011;40530;53.062;6.078;2023-01-29T09:46:51;46.72;;;27.77;;
53971;SDS011;40530;53.062;6.078;2023-01-29T09:49:25;45.47;;;27.73;;
53971;SDS011;40530;53.062;6.078;2023-01-29T09:51:57;38.58;;;27.45;;
53971;SDS011;40530;53.062;6.078;2023-01-29T09:54:30;51.55;;;29.73;;
53971;SDS011;40530;53.062;6.078;2023-01-29T09:56:57;46.08;;;29.00;;
53971;SDS011;40530;53.062;6.078;2023-01-29T09:59:24;49.28;;;31.30;;
53971;SDS011;40530;53.062;6.078;2023-01-29T10:12:03;50.72;;;31.65;;
53971;SDS011;40530;53.062;6.078;2023-01-29T10:14:38;50.25;;;31.85;;
53971;SDS011;40530;53.062;6.078;2023-01-29T10:17:22;45.33;;;29.70;;
53971;SDS011;40530;53.062;6.078;2023-01-29T10:25:20;55.35;;;33.35;;
53971;SDS011;40530;53.062;6.078;2023-01-29T10:27:48;47.92;;;29.75;;
53971;SDS011;40530;53.062;6.078;2023-01-29T10:30:35;53.70;;;32.33;;
53971;SDS011;40530;53.062;6.078;2023-01-29T10:33:08;48.22;;;28.52;;
53971;SDS011;40530;53.062;6.078;2023-01-29T10:35:38;52.83;;;30.85;;
53971;SDS011;40530;53.062;6.078;2023-01-29T10:43:20;49.72;;;29.27;;
53971;SDS011;40530;53.062;6.078;2023-01-29T10:53:42;46.90;;;27.85;;
53971;SDS011;40530;53.062;6.078;2023-01-29T10:59:14;48.75;;;27.45;;
53971;SDS011;40530;53.062;6.078;2023-01-29T11:01:41;43.85;;;26.80;;
53971;SDS011;40530;53.062;6.078;2023-01-29T11:04:08;50.38;;;27.88;;
53971;SDS011;40530;53.062;6.078;2023-01-29T11:06:36;43.95;;;27.73;;
53971;SDS011;40530;53.062;6.078;2023-01-29T11:14:15;45.65;;;27.75;;
53971;SDS011;40530;53.062;6.078;2023-01-29T11:16:45;52.10;;;28.83;;
53971;SDS011;40530;53.062;6.078;2023-01-29T11:19:11;37.90;;;25.25;;
53971;SDS011;40530;53.062;6.078;2023-01-29T11:21:56;42.33;;;27.45;;
53971;SDS011;40530;53.062;6.078;2023-01-29T11:24:23;38.53;;;24.90;;
53971;SDS011;40530;53.062;6.078;2023-01-29T11:26:49;37.88;;;23.90;;
53971;SDS011;40530;53.062;6.078;2023-01-29T11:32:43;38.13;;;24.38;;
53971;SDS011;40530;53.062;6.078;2023-01-29T11:35:01;36.28;;;23.45;;
53971;SDS011;40530;53.062;6.078;2023-01-29T11:37:34;42.75;;;23.95;;
53971;SDS011;40530;53.062;6.078;2023-01-29T11:40:04;36.55;;;23.05;;
53971;SDS011;40530;53.062;6.078;2023-01-29T11:42:47;39.28;;;23.83;;
53971;SDS011;40530;53.062;6.078;2023-01-29T11:47:52;36.35;;;24.30;;
53971;SDS011;40530;53.062;6.078;2023-01-29T11:50:23;40.47;;;22.90;;
53971;SDS011;40530;53.062;6.078;2023-01-29T11:52:49;35.83;;;20.63;;
53971;SDS011;40530;53.062;6.078;2023-01-29T11:55:16;37.83;;;23.92;;
53971;SDS011;40530;53.062;6.078;2023-01-29T11:58:17;31.23;;;20.75;;
53971;SDS011;40530;53.062;6.078;2023-01-29T12:00:36;45.45;;;23.05;;
53971;SDS011;40530;53.062;6.078;2023-01-29T12:03:50;32.42;;;21.55;;
53971;SDS011;40530;53.062;6.078;2023-01-29T12:06:01;32.50;;;21.77;;
53971;SDS011;40530;53.062;6.078;2023-01-29T12:08:30;41.25;;;23.00;;
53971;SDS011;40530;53.062;6.078;2023-01-29T12:11:05;30.38;;;20.73;;
53971;SDS011;40530;53.062;6.078;2023-01-29T12:13:32;34.30;;;20.65;;
53971;SDS011;40530;53.062;6.078;2023-01-29T12:16:09;34.92;;;22.52;;
53971;SDS011;40530;53.062;6.078;2023-01-29T12:18:41;35.40;;;21.35;;
53971;SDS011;40530;53.062;6.078;2023-01-29T12:21:11;30.15;;;21.20;;
53971;SDS011;40530;53.062;6.078;2023-01-29T12:26:10;33.63;;;21.88;;
53971;SDS011;40530;53.062;6.078;2023-01-29T12:31:15;37.58;;;23.10;;
53971;SDS011;40530;53.062;6.078;2023-01-29T12:33:50;33.20;;;21.65;;
53971;SDS011;40530;53.062;6.078;2023-01-29T12:36:24;34.85;;;22.98;;
53971;SDS011;40530;53.062;6.078;2023-01-29T12:38:52;31.70;;;21.65;;
53971;SDS011;40530;53.062;6.078;2023-01-29T12:43:50;33.90;;;22.45;;
53971;SDS011;40530;53.062;6.078;2023-01-29T12:46:22;43.78;;;24.27;;
53971;SDS011;40530;53.062;6.078;2023-01-29T12:48:50;35.65;;;23.67;;
53971;SDS011;40530;53.062;6.078;2023-01-29T12:51:18;38.83;;;24.75;;
53971;SDS011;40530;53.062;6.078;2023-01-29T12:53:55;37.42;;;25.52;;
53971;SDS011;40530;53.062;6.078;2023-01-29T12:56:29;30.65;;;20.85;;
53971;SDS011;40530;53.062;6.078;2023-01-29T12:58:56;30.70;;;20.95;;
53971;SDS011;40530;53.062;6.078;2023-01-29T13:01:37;39.22;;;25.02;;
53971;SDS011;40530;53.062;6.078;2023-01-29T13:04:08;38.58;;;23.92;;
53971;SDS011;40530;53.062;6.078;2023-01-29T13:06:38;40.30;;;25.10;;
53971;SDS011;40530;53.062;6.078;2023-01-29T13:09:28;35.53;;;23.92;;
53971;SDS011;40530;53.062;6.078;2023-01-29T13:11:54;42.03;;;26.50;;
53971;SDS011;40530;53.062;6.078;2023-01-29T13:14:24;45.90;;;26.77;;
53971;SDS011;40530;53.062;6.078;2023-01-29T13:16:54;39.67;;;26.52;;
53971;SDS011;40530;53.062;6.078;2023-01-29T13:19:26;43.35;;;27.60;;
53971;SDS011;40530;53.062;6.078;2023-01-29T13:21:55;41.53;;;25.50;;
53971;SDS011;40530;53.062;6.078;2023-01-29T13:24:22;42.78;;;27.92;;
53971;SDS011;40530;53.062;6.078;2023-01-29T13:26:50;56.15;;;37.38;;
53971;SDS011;40530;53.062;6.078;2023-01-29T13:29:23;37.78;;;25.27;;
53971;SDS011;40530;53.062;6.078;2023-01-29T13:31:50;42.28;;;24.75;;
53971;SDS011;40530;53.062;6.078;2023-01-29T13:36:47;45.13;;;25.38;;
53971;SDS011;40530;53.062;6.078;2023-01-29T13:39:33;38.00;;;24.27;;
53971;SDS011;40530;53.062;6.078;2023-01-29T13:42:02;36.88;;;25.13;;
53971;SDS011;40530;53.062;6.078;2023-01-29T13:44:31;42.50;;;26.58;;
53971;SDS011;40530;53.062;6.078;2023-01-29T13:49:37;36.90;;;24.33;;
53971;SDS011;40530;53.062;6.078;2023-01-29T14:10:23;40.78;;;25.88;;
53971;SDS011;40530;53.062;6.078;2023-01-29T14:15:29;45.00;;;29.08;;
53971;SDS011;40530;53.062;6.078;2023-01-29T14:18:15;42.53;;;27.55;;
53971;SDS011;40530;53.062;6.078;2023-01-29T14:23:22;44.42;;;27.90;;
53971;SDS011;40530;53.062;6.078;2023-01-29T14:25:52;39.55;;;26.48;;
53971;SDS011;40530;53.062;6.078;2023-01-29T14:28:19;36.40;;;25.00;;
53971;SDS011;40530;53.062;6.078;2023-01-29T14:30:47;40.78;;;27.20;;
53971;SDS011;40530;53.062;6.078;2023-01-29T14:33:35;39.47;;;26.27;;
53971;SDS011;40530;53.062;6.078;2023-01-29T14:36:04;37.83;;;25.88;;
53971;SDS011;40530;53.062;6.078;2023-01-29T14:38:31;42.28;;;27.20;;
53971;SDS011;40530;53.062;6.078;2023-01-29T14:41:02;42.17;;;26.35;;
53971;SDS011;40530;53.062;6.078;2023-01-29T14:43:29;43.73;;;27.23;;
53971;SDS011;40530;53.062;6.078;2023-01-29T14:45:55;42.10;;;26.77;;
53971;SDS011;40530;53.062;6.078;2023-01-29T14:48:47;42.35;;;27.27;;
53971;SDS011;40530;53.062;6.078;2023-01-29T14:51:14;42.95;;;28.63;;
53971;SDS011;40530;53.062;6.078;2023-01-29T14:53:50;51.08;;;29.23;;
53971;SDS011;40530;53.062;6.078;2023-01-29T14:58:45;48.85;;;30.38;;
53971;SDS011;40530;53.062;6.078;2023-01-29T15:01:32;57.00;;;32.28;;
53971;SDS011;40530;53.062;6.078;2023-01-29T15:06:31;56.78;;;31.80;;
53971;SDS011;40530;53.062;6.078;2023-01-29T15:09:01;52.55;;;31.33;;
53971;SDS011;40530;53.062;6.078;2023-01-29T15:11:33;52.97;;;32.92;;
53971;SDS011;40530;53.062;6.078;2023-01-29T15:14:15;55.65;;;32.20;;
53971;SDS011;40530;53.062;6.078;2023-01-29T15:16:52;53.08;;;33.45;;
53971;SDS011;40530;53.062;6.078;2023-01-29T15:24:32;51.63;;;30.83;;
53971;SDS011;40530;53.062;6.078;2023-01-29T15:26:59;54.40;;;32.20;;
53971;SDS011;40530;53.062;6.078;2023-01-29T15:29:25;47.78;;;29.20;;
53971;SDS011;40530;53.062;6.078;2023-01-29T15:31:53;53.97;;;31.73;;
53971;SDS011;40530;53.062;6.078;2023-01-29T15:34:19;50.85;;;31.23;;
53971;SDS011;40530;53.062;6.078;2023-01-29T15:36:46;52.42;;;29.67;;
53971;SDS011;40530;53.062;6.078;2023-01-29T15:41:43;47.47;;;29.30;;
53971;SDS011;40530;53.062;6.078;2023-01-29T15:44:13;48.88;;;29.75;;
53971;SDS011;40530;53.062;6.078;2023-01-29T15:46:44;57.30;;;30.05;;
53971;SDS011;40530;53.062;6.078;2023-01-29T15:49:16;52.95;;;31.38;;
53971;SDS011;40530;53.062;6.078;2023-01-29T15:51:44;56.90;;;31.52;;
53971;SDS011;40530;53.062;6.078;2023-01-29T15:54:12;59.72;;;32.17;;
53971;SDS011;40530;53.062;6.078;2023-01-29T15:56:40;52.33;;;30.67;;
53971;SDS011;40530;53.062;6.078;2023-01-29T15:59:18;53.28;;;31.23;;
53971;SDS011;40530;53.062;6.078;2023-01-29T16:01:46;63.47;;;31.13;;
53971;SDS011;40530;53.062;6.078;2023-01-29T16:04:13;64.32;;;31.75;;
53971;SDS011;40530;53.062;6.078;2023-01-29T16:06:41;55.35;;;31.23;;
53971;SDS011;40530;53.062;6.078;2023-01-29T16:09:09;65.82;;;32.90;;
53971;SDS011;40530;53.062;6.078;2023-01-29T16:11:39;62.53;;;32.40;;
53971;SDS011;40530;53.062;6.078;2023-01-29T16:14:05;57.85;;;31.55;;
53971;SDS011;40530;53.062;6.078;2023-01-29T16:16:32;61.33;;;30.38;;
53971;SDS011;40530;53.062;6.078;2023-01-29T16:18:58;55.35;;;30.25;;
53971;SDS011;40530;53.062;6.078;2023-01-29T16:21:29;58.70;;;31.85;;
53971;SDS011;40530;53.062;6.078;2023-01-29T16:23:58;56.58;;;30.10;;
53971;SDS011;40530;53.062;6.078;2023-01-29T16:26:25;63.80;;;30.38;;
53971;SDS011;40530;53.062;6.078;2023-01-29T16:28:52;58.55;;;32.47;;
53971;SDS011;40530;53.062;6.078;2023-01-29T16:31:19;61.25;;;33.08;;
53971;SDS011;40530;53.062;6.078;2023-01-29T16:33:46;59.63;;;33.95;;
53971;SDS011;40530;53.062;6.078;2023-01-29T16:36:17;50.20;;;29.42;;
53971;SDS011;40530;53.062;6.078;2023-01-29T16:38:51;57.20;;;31.30;;
53971;SDS011;40530;53.062;6.078;2023-01-29T16:43:56;56.20;;;31.80;;
53971;SDS011;40530;53.062;6.078;2023-01-29T16:48:58;60.13;;;32.42;;
53971;SDS011;40530;53.062;6.078;2023-01-29T16:53:55;54.55;;;32.15;;
53971;SDS011;40530;53.062;6.078;2023-01-29T16:56:21;55.95;;;32.03;;
53971;SDS011;40530;53.062;6.078;2023-01-29T16:58:48;49.67;;;30.55;;